»·PEaware :: N734UG KSMX-KBFL

N734UG :: KSMX-KBFL

FLIGHT INFORMATION

Flight Status: Arrived
Operator: Privately registered:
United States
More flights under this callsign
Pilot: Dakota F. (17727)
Aircraft: CESSNA 172 SKYHAWK
(C172)
More flights by this aircraft type
Origin: KSMX Santa Maria Pub/Capt Hancock
United States
Destination: KBFL Meadows
United States
More flights between these airports :: More routes between these airports
Route: +
File this flight plan on PilotEdge
Remarks: CAT5
Altitude:
(Current/Filed)
0ft
Speed:
(Current/Filed)
125kts
Departed: 01-Jan-18 06:42 PM
Arrived: 01-Jan-18 07:20 PM
Distance/Time
Traveled:
76nm/0:38
Distance/Time
To Go:
Arrived

Flight Plot

Page will automatically refresh every two minutes.


Map Options




Map Legend


Flown Route
Filed Route
Departure Airport
Arrival Airport
Navaid (VOR, NDB)
Fix

Horizontal Profiles

Position Reports

Time Latitude Longitude Heading Altitude Ground
Speed
01-Jan-18 18:47 34.983627 -120.221864 61 7554ft 134kts
01-Jan-18 18:48 35.001359 -120.185514 59 7470ft 117kts
01-Jan-18 18:49 35.018408 -120.152255 59 7384ft 115kts
01-Jan-18 18:50 35.034319 -120.119649 68 7477ft 110kts
01-Jan-18 18:51 35.046252 -120.084198 66 7529ft 113kts
01-Jan-18 18:52 35.059622 -120.049552 67 7595ft 113kts
01-Jan-18 18:53 35.073677 -120.014498 66 7602ft 114kts
01-Jan-18 18:54 35.086389 -119.981862 66 7529ft 118kts
01-Jan-18 18:55 35.100405 -119.945969 64 7534ft 117kts
01-Jan-18 18:56 35.115431 -119.909447 66 7514ft 117kts
01-Jan-18 18:57 35.128191 -119.873318 63 7466ft 113kts
01-Jan-18 18:58 35.142878 -119.839988 64 7476ft 112kts
01-Jan-18 18:59 35.157980 -119.802277 65 7591ft 124kts
01-Jan-18 19:00 35.173233 -119.763311 64 7596ft 131kts
01-Jan-18 19:01 35.189432 -119.724096 63 7639ft 128kts
01-Jan-18 19:02 35.201538 -119.683353 75 7559ft 128kts
01-Jan-18 19:03 35.213613 -119.643071 63 7483ft 123kts
01-Jan-18 19:04 35.229011 -119.605319 65 7434ft 122kts
01-Jan-18 19:05 35.243067 -119.570611 65 7483ft 115kts
01-Jan-18 19:06 35.253757 -119.536301 67 7554ft 115kts
01-Jan-18 19:07 35.265894 -119.501014 61 7587ft 116kts
01-Jan-18 19:08 35.278455 -119.464301 68 7538ft 118kts
01-Jan-18 19:09 35.293276 -119.427804 55 7427ft 119kts
01-Jan-18 19:10 35.303811 -119.389572 72 7435ft 118kts
01-Jan-18 19:11 35.313349 -119.351165 67 7427ft 118kts
01-Jan-18 19:12 35.327568 -119.314891 54 7359ft 118kts
01-Jan-18 19:13 35.343762 -119.280293 57 7319ft 116kts
01-Jan-18 19:14 35.359573 -119.245422 59 7305ft 117kts
01-Jan-18 19:15 35.376118 -119.210831 54 7277ft 117kts
01-Jan-18 19:16 35.392848 -119.177654 59 7227ft 90kts
01-Jan-18 19:17 35.408387 -119.154129 39 6237ft 98kts
01-Jan-18 19:18 35.427107 -119.129128 78 5035ft 101kts
01-Jan-18 19:19 35.411185 -119.103544 137 4283ft 99kts
01-Jan-18 19:20 35.392753 -119.084984 136 3737ft 67kts
01-Jan-18 19:21 35.378185 -119.068287 129 3377ft 78kts
01-Jan-18 19:22 35.383503 -119.045455 27 2514ft 86kts
01-Jan-18 19:23 35.404133 -119.035870 16 1829ft 68kts
01-Jan-18 19:24 35.421122 -119.041405 320 1095ft 55kts
01-Jan-18 19:25 35.432087 -119.054134 313 534ft 46kts
01-Jan-18 19:26 35.436023 -119.058212 58 510ft 11kts
01-Jan-18 19:27 35.436269 -119.057751 56 510ft 12kts
01-Jan-18 19:28 35.433718 -119.053604 133 510ft 28kts
01-Jan-18 19:29 35.431681 -119.049582 49 510ft 15kts
01-Jan-18 19:30 35.429125 -119.045156 130 510ft 21kts
01-Jan-18 19:31 35.427886 -119.043459 52 510ft 0kts
01-Jan-18 19:32 35.427958 -119.043371 43 510ft 0kts
01-Jan-18 19:33 35.427958 -119.043371 43 510ft 0kts
01-Jan-18 19:34 35.427958 -119.043371 43 510ft 0kts
01-Jan-18 19:35 35.427958 -119.043371 43 510ft 0kts
01-Jan-18 19:36 35.427958 -119.043371 43 510ft 0kts
01-Jan-18 19:37 35.427958 -119.043371 43 510ft 0kts
01-Jan-18 19:38 35.427958 -119.043371 43 510ft 0kts

Navigation Log

Ident Type
1. KSMX Airport
2. KBFL Airport